createdAt,value
2022-12-03T00:01:42.413Z,75.24
2022-12-03T00:03:45.327Z,75.38
2022-12-03T00:05:49.108Z,74.78
2022-12-03T00:07:52.143Z,75.04
2022-12-03T00:09:54.953Z,75.29
2022-12-03T00:11:57.757Z,75.28
2022-12-03T00:14:00.579Z,74.91
2022-12-03T00:16:05.017Z,75.12
2022-12-03T00:18:07.819Z,74.67
2022-12-03T00:20:18.147Z,74.75
2022-12-03T00:22:20.958Z,75.00
2022-12-03T00:24:23.748Z,75.10
2022-12-03T00:26:26.592Z,74.89
2022-12-03T00:28:29.556Z,74.68
2022-12-03T00:30:32.322Z,74.90
2022-12-03T00:32:36.741Z,74.78
2022-12-03T00:34:39.523Z,75.17
2022-12-03T00:36:42.285Z,75.17
2022-12-03T00:38:45.159Z,75.59
2022-12-03T00:40:47.873Z,75.07
2022-12-03T00:42:50.670Z,75.60
2022-12-03T00:44:53.689Z,74.85
2022-12-03T00:46:56.733Z,75.17
2022-12-03T00:49:03.515Z,75.37
2022-12-03T00:51:06.516Z,75.11
2022-12-03T00:53:09.315Z,75.41
2022-12-03T00:55:12.167Z,74.97
2022-12-03T00:57:14.975Z,75.63
2022-12-03T00:59:17.745Z,75.33
2022-12-03T01:01:20.555Z,75.91
2022-12-03T01:03:23.397Z,75.33
2022-12-03T01:05:27.516Z,75.28
2022-12-03T01:07:30.380Z,75.33
2022-12-03T01:09:33.472Z,75.28
2022-12-03T01:11:39.264Z,75.56
2022-12-03T01:13:42.011Z,75.32
2022-12-03T01:15:44.891Z,75.36
2022-12-03T01:17:47.727Z,74.75
2022-12-03T01:19:52.432Z,74.76
2022-12-03T01:21:56.853Z,74.31
2022-12-03T01:24:00.826Z,74.38
2022-12-03T01:26:03.589Z,74.81
2022-12-03T01:28:06.294Z,75.24
2022-12-03T01:30:10.668Z,75.22
2022-12-03T01:32:19.336Z,75.09
2022-12-03T01:34:22.309Z,74.91
2022-12-03T01:36:25.088Z,75.29
2022-12-03T01:38:29.198Z,75.02
2022-12-03T01:40:31.998Z,74.81
2022-12-03T01:42:37.748Z,74.74
2022-12-03T01:44:41.832Z,74.95
2022-12-03T01:46:45.928Z,75.08
2022-12-03T01:48:50.038Z,75.07
2022-12-03T01:50:53.819Z,74.89
2022-12-03T01:52:59.711Z,74.87
2022-12-03T01:55:07.355Z,74.91
2022-12-03T01:57:20.600Z,75.20
2022-12-03T01:59:31.411Z,75.20
2022-12-03T02:01:34.408Z,75.17
2022-12-03T02:03:37.587Z,74.97
2022-12-03T02:05:41.498Z,74.45
2022-12-03T02:07:44.938Z,74.11
2022-12-03T02:09:48.208Z,73.80
2022-12-03T02:11:53.363Z,74.24
2022-12-03T02:14:00.442Z,74.40
2022-12-03T02:16:04.480Z,74.70
2022-12-03T02:18:08.941Z,74.63
2022-12-03T02:20:14.405Z,74.40
2022-12-03T02:22:26.369Z,74.74
2022-12-03T02:24:38.293Z,74.08
2022-12-03T02:26:42.415Z,73.91
2022-12-03T02:28:45.190Z,73.71
2022-12-03T02:30:48.061Z,73.59
2022-12-03T02:32:51.858Z,74.29
2022-12-03T02:34:54.873Z,74.44
2022-12-03T02:36:57.981Z,73.99
2022-12-03T02:39:01.501Z,74.09
2022-12-03T02:41:07.597Z,73.71
2022-12-03T02:43:14.699Z,72.97
2022-12-03T02:45:22.093Z,72.81
2022-12-03T02:47:24.975Z,72.95
2022-12-03T02:49:27.918Z,73.34
2022-12-03T02:51:30.746Z,72.87
2022-12-03T02:53:38.529Z,73.04
2022-12-03T02:55:42.698Z,72.63
2022-12-03T02:57:47.058Z,72.28
2022-12-03T02:59:51.971Z,72.13
2022-12-03T03:01:54.979Z,72.89
2022-12-03T03:03:58.637Z,72.89
2022-12-03T03:06:03.217Z,72.71
2022-12-03T03:08:07.360Z,72.83
2022-12-03T03:10:15.410Z,72.74
2022-12-03T03:12:18.262Z,72.90
2022-12-03T03:14:21.002Z,72.31
2022-12-03T03:16:25.279Z,72.82
2022-12-03T03:18:28.212Z,72.73
2022-12-03T03:20:31.067Z,72.50
2022-12-03T03:22:34.296Z,72.51
2022-12-03T03:24:37.214Z,72.41
2022-12-03T03:26:40.020Z,72.45
2022-12-03T03:28:46.575Z,72.44
2022-12-03T03:30:49.572Z,72.21
2022-12-03T03:32:53.788Z,72.35
2022-12-03T03:34:57.014Z,71.76
2022-12-03T03:36:59.978Z,72.06
2022-12-03T03:39:03.293Z,72.20
2022-12-03T03:41:09.087Z,72.67
2022-12-03T03:43:13.201Z,72.73
2022-12-03T03:45:16.365Z,72.31
2022-12-03T03:47:20.043Z,72.37
2022-12-03T03:49:24.546Z,72.57
2022-12-03T03:51:27.580Z,72.12
2022-12-03T03:53:31.384Z,72.08
2022-12-03T03:55:35.448Z,73.03
2022-12-03T03:57:38.924Z,72.66
2022-12-03T03:59:42.303Z,72.14
2022-12-03T04:01:45.507Z,71.77
2022-12-03T04:03:48.343Z,72.42
2022-12-03T04:05:52.540Z,72.15
2022-12-03T04:07:55.558Z,71.71
2022-12-03T04:09:58.438Z,72.23
2022-12-03T04:12:19.242Z,72.46
2022-12-03T04:14:22.062Z,72.47
2022-12-03T04:16:24.955Z,71.67
2022-12-03T04:18:45.701Z,71.62
2022-12-03T04:20:48.476Z,72.01
2022-12-03T04:22:51.599Z,71.96
2022-12-03T04:25:15.140Z,72.10
2022-12-03T04:27:35.423Z,71.82
2022-12-03T04:29:37.390Z,71.80
2022-12-03T04:31:58.431Z,71.25
2022-12-03T04:34:18.975Z,71.31
2022-12-03T04:36:21.768Z,71.40
2022-12-03T04:38:25.881Z,71.23
2022-12-03T04:40:47.259Z,71.65
2022-12-03T04:42:50.065Z,71.11
2022-12-03T04:44:53.086Z,71.25
2022-12-03T04:46:56.087Z,71.02
2022-12-03T04:49:00.023Z,71.32
2022-12-03T04:51:02.804Z,70.64
2022-12-03T04:53:05.605Z,70.91
2022-12-03T04:55:10.345Z,71.15
2022-12-03T04:57:13.402Z,71.41
2022-12-03T04:59:16.765Z,71.63
2022-12-03T05:01:19.753Z,70.88
2022-12-03T05:03:22.550Z,70.06
2022-12-03T05:05:25.397Z,70.53
2022-12-03T05:07:28.288Z,69.72
2022-12-03T05:09:31.176Z,70.36
2022-12-03T05:11:34.350Z,70.75
2022-12-03T05:13:37.488Z,70.28
2022-12-03T05:15:40.381Z,69.69
2022-12-03T05:17:43.125Z,69.02
2022-12-03T05:20:03.331Z,69.98
2022-12-03T05:22:06.145Z,68.96
2022-12-03T05:24:09.214Z,69.36
2022-12-03T05:26:12.018Z,69.63
2022-12-03T05:28:16.285Z,70.28
2022-12-03T05:30:19.067Z,70.67
2022-12-03T05:32:22.052Z,70.53
2022-12-03T05:34:24.898Z,69.91
2022-12-03T05:36:27.668Z,70.41
2022-12-03T05:38:30.460Z,70.07
2022-12-03T05:40:33.315Z,70.51
2022-12-03T05:42:53.588Z,70.68
2022-12-03T05:44:57.690Z,70.84
2022-12-03T05:47:00.427Z,70.86
2022-12-03T05:49:03.220Z,71.25
2022-12-03T05:51:06.032Z,70.86
2022-12-03T05:53:08.822Z,71.10
2022-12-03T05:55:12.770Z,70.95
2022-12-03T05:57:15.565Z,71.20
2022-12-03T05:59:18.367Z,70.98
2022-12-03T06:01:22.568Z,70.91
2022-12-03T06:03:25.439Z,71.64
2022-12-03T06:05:28.335Z,71.46
2022-12-03T06:07:31.136Z,71.04
2022-12-03T06:09:33.949Z,71.15
2022-12-03T06:11:37.213Z,70.95
2022-12-03T06:13:40.033Z,70.92
2022-12-03T06:15:44.154Z,70.29
2022-12-03T06:17:48.903Z,70.50
2022-12-03T06:19:51.769Z,71.32
2022-12-03T06:21:55.398Z,71.04
2022-12-03T06:23:58.182Z,71.34
2022-12-03T06:26:00.928Z,71.13
2022-12-03T06:28:03.808Z,71.14
2022-12-03T06:30:08.859Z,71.33
2022-12-03T06:32:11.677Z,70.84
2022-12-03T06:34:15.831Z,71.17
2022-12-03T06:36:22.743Z,71.30
2022-12-03T06:38:26.090Z,71.73
2022-12-03T06:40:28.834Z,71.81
2022-12-03T06:42:31.638Z,71.64
2022-12-03T06:44:34.511Z,72.04
2022-12-03T06:46:37.591Z,71.89
2022-12-03T06:48:40.339Z,71.55
2022-12-03T06:50:44.451Z,71.74
2022-12-03T06:52:47.385Z,71.64
2022-12-03T06:54:50.135Z,71.26
2022-12-03T06:56:52.880Z,71.73
2022-12-03T06:58:55.915Z,71.76
2022-12-03T07:00:58.921Z,71.77
2022-12-03T07:03:01.786Z,72.51
2022-12-03T07:05:05.202Z,72.02
2022-12-03T07:07:09.277Z,71.62
2022-12-03T07:09:12.028Z,71.98
2022-12-03T07:11:28.682Z,70.98
2022-12-03T07:13:31.454Z,71.27
2022-12-03T07:15:34.273Z,70.78
2022-12-03T07:17:37.052Z,71.00
2022-12-03T07:19:39.844Z,71.07
2022-12-03T07:21:42.896Z,70.54
2022-12-03T07:23:48.186Z,70.39
2022-12-03T07:25:50.898Z,69.30
2022-12-03T07:27:53.684Z,69.91
2022-12-03T07:29:56.429Z,70.55
2022-12-03T07:31:59.217Z,70.53
2022-12-03T07:34:03.711Z,70.55
2022-12-03T07:36:06.962Z,70.80
2022-12-03T07:38:09.764Z,70.71
2022-12-03T07:40:14.664Z,70.63
2022-12-03T07:42:17.422Z,70.77
2022-12-03T07:44:20.210Z,71.16
2022-12-03T07:46:23.247Z,70.92
2022-12-03T07:48:26.137Z,70.16
2022-12-03T07:50:28.937Z,70.56
2022-12-03T07:52:31.698Z,70.80
2022-12-03T07:54:34.440Z,70.83
2022-12-03T07:56:38.579Z,71.34
2022-12-03T07:58:41.406Z,70.99
2022-12-03T08:00:44.201Z,71.17
2022-12-03T08:02:47.385Z,71.77
2022-12-03T08:04:50.266Z,72.19
2022-12-03T08:06:53.057Z,72.14
2022-12-03T08:08:55.848Z,71.64
2022-12-03T08:10:58.614Z,71.84
2022-12-03T08:13:07.643Z,71.79
2022-12-03T08:15:15.775Z,71.82
2022-12-03T08:17:19.766Z,71.22
2022-12-03T08:19:22.749Z,71.01
2022-12-03T08:21:25.524Z,71.19
2022-12-03T08:23:28.826Z,71.04
2022-12-03T08:25:33.704Z,70.80
2022-12-03T08:27:36.307Z,72.77
2022-12-03T08:29:40.411Z,71.34
2022-12-03T08:31:48.070Z,70.64
2022-12-03T08:33:53.409Z,70.88
2022-12-03T08:35:56.383Z,71.56
2022-12-03T08:38:02.597Z,71.63
2022-12-03T08:40:21.451Z,71.52
2022-12-03T08:42:44.105Z,72.07
2022-12-03T08:44:48.713Z,70.63
2022-12-03T08:46:55.111Z,70.60
2022-12-03T08:48:57.964Z,70.77
2022-12-03T08:51:04.698Z,70.25
2022-12-03T08:53:24.436Z,70.35
2022-12-03T08:55:35.099Z,70.30
2022-12-03T08:57:37.969Z,70.86
2022-12-03T08:59:45.307Z,70.18
2022-12-03T09:01:50.266Z,70.05
2022-12-03T09:03:55.140Z,70.34
2022-12-03T09:05:57.814Z,70.64
2022-12-03T09:08:00.752Z,71.05
2022-12-03T09:10:03.654Z,69.16
2022-12-03T09:12:06.966Z,69.40
2022-12-03T09:14:15.118Z,69.86
2022-12-03T09:16:21.058Z,69.36
2022-12-03T09:18:25.338Z,70.09
2022-12-03T09:20:28.170Z,70.33
2022-12-03T09:22:30.946Z,70.15
2022-12-03T09:24:33.714Z,69.90
2022-12-03T09:26:37.278Z,69.60
2022-12-03T09:28:40.078Z,69.63
2022-12-03T09:30:42.931Z,68.81
2022-12-03T09:32:45.755Z,68.69
2022-12-03T09:34:49.903Z,68.92
2022-12-03T09:36:52.683Z,68.96
2022-12-03T09:38:55.476Z,69.22
2022-12-03T09:40:58.320Z,69.82
2022-12-03T09:43:01.089Z,68.59
2022-12-03T09:45:10.686Z,69.05
2022-12-03T09:47:38.388Z,68.60
2022-12-03T09:49:41.666Z,68.86
2022-12-03T09:51:46.786Z,68.88
2022-12-03T09:53:49.699Z,68.92
2022-12-03T09:55:53.088Z,69.18
2022-12-03T09:57:57.669Z,68.64
2022-12-03T10:00:01.185Z,67.54
2022-12-03T10:02:04.605Z,68.22
2022-12-03T10:04:08.014Z,68.15
2022-12-03T10:06:14.826Z,67.97
2022-12-03T10:08:21.852Z,67.95
2022-12-03T10:10:25.526Z,68.41
2022-12-03T10:12:30.277Z,67.85
2022-12-03T10:14:33.375Z,67.15
2022-12-03T10:16:39.536Z,67.55
2022-12-03T10:18:47.195Z,68.35
2022-12-03T10:20:50.644Z,67.57
2022-12-03T10:22:53.477Z,67.51
2022-12-03T10:25:09.872Z,67.61
2022-12-03T10:27:23.161Z,67.75
2022-12-03T10:29:33.218Z,68.63
2022-12-03T10:31:37.412Z,68.52
2022-12-03T10:33:44.629Z,67.71
2022-12-03T10:35:47.723Z,67.14
2022-12-03T10:38:01.119Z,67.48
2022-12-03T10:40:09.211Z,67.62
2022-12-03T10:42:15.890Z,67.72
2022-12-03T10:44:20.569Z,68.16
2022-12-03T10:46:24.018Z,68.03
2022-12-03T10:48:27.482Z,68.03
2022-12-03T10:50:30.445Z,68.13
2022-12-03T10:52:33.708Z,67.52
2022-12-03T10:54:36.748Z,68.05
2022-12-03T10:56:41.280Z,68.47
2022-12-03T10:58:44.158Z,68.70
2022-12-03T11:00:46.989Z,68.23
2022-12-03T11:02:56.443Z,68.44
2022-12-03T11:04:59.794Z,70.23
2022-12-03T11:07:03.405Z,71.90
2022-12-03T11:09:09.033Z,69.59
2022-12-03T11:11:19.205Z,69.51
2022-12-03T11:13:44.482Z,69.10
2022-12-03T11:15:47.431Z,68.82
2022-12-03T11:17:51.472Z,68.73
2022-12-03T11:19:54.513Z,68.92
2022-12-03T11:22:18.399Z,68.82
2022-12-03T11:24:21.899Z,69.04
2022-12-03T11:26:58.154Z,69.25
2022-12-03T11:29:02.371Z,69.24
2022-12-03T11:31:12.187Z,69.22
2022-12-03T11:33:23.257Z,68.92
2022-12-03T11:35:29.672Z,68.29
2022-12-03T11:37:32.630Z,69.02
2022-12-03T11:40:00.026Z,69.37
2022-12-03T11:42:30.798Z,69.48
2022-12-03T11:44:35.163Z,69.96
2022-12-03T11:46:44.449Z,69.90
2022-12-03T11:48:48.807Z,69.84
2022-12-03T11:50:53.294Z,69.71
2022-12-03T11:53:00.823Z,69.91
2022-12-03T11:55:15.269Z,70.23
2022-12-03T11:57:27.432Z,69.54
2022-12-03T11:59:30.225Z,69.48
2022-12-03T12:01:38.928Z,69.76
2022-12-03T12:03:44.993Z,69.90
2022-12-03T12:05:47.988Z,69.96
2022-12-03T12:07:51.760Z,69.92
2022-12-03T12:09:57.148Z,69.89
2022-12-03T12:12:36.105Z,70.02
2022-12-03T12:14:38.948Z,69.83
2022-12-03T12:16:51.960Z,69.77
2022-12-03T12:18:55.562Z,69.56
2022-12-03T12:21:32.385Z,69.46
2022-12-03T12:23:35.311Z,69.30
2022-12-03T12:25:41.408Z,68.79
2022-12-03T12:27:45.467Z,68.38
2022-12-03T12:29:53.913Z,66.91
2022-12-03T12:32:12.067Z,67.41
2022-12-03T12:34:15.305Z,67.28
2022-12-03T12:36:18.127Z,67.44
2022-12-03T12:38:24.394Z,67.41
2022-12-03T12:40:29.218Z,66.58
2022-12-03T12:42:35.476Z,66.69
2022-12-03T12:44:38.380Z,66.99
2022-12-03T12:46:49.428Z,67.19
2022-12-03T12:48:59.425Z,66.77
2022-12-03T12:51:10.726Z,66.42
2022-12-03T12:53:21.235Z,66.86
2022-12-03T12:55:25.212Z,66.84
2022-12-03T12:57:27.954Z,67.26
2022-12-03T12:59:30.777Z,67.28
2022-12-03T13:01:35.520Z,66.84
2022-12-03T13:03:39.842Z,67.66
2022-12-03T13:05:47.870Z,67.63
2022-12-03T13:07:53.564Z,67.40
2022-12-03T13:09:57.027Z,67.61
2022-12-03T13:12:03.775Z,66.34
2022-12-03T13:14:13.369Z,66.07
2022-12-03T13:16:20.553Z,65.64
2022-12-03T13:18:27.966Z,65.67
2022-12-03T13:20:30.699Z,66.32
2022-12-03T13:22:34.964Z,66.14
2022-12-03T13:24:39.946Z,66.61
2022-12-03T13:26:42.798Z,67.25
2022-12-03T13:28:45.621Z,67.21
2022-12-03T13:30:48.431Z,66.52
2022-12-03T13:32:51.219Z,66.21
2022-12-03T13:34:57.136Z,66.63
2022-12-03T13:37:01.539Z,67.19
2022-12-03T13:39:16.561Z,67.32
2022-12-03T13:41:39.217Z,66.49
2022-12-03T13:43:44.583Z,65.64
2022-12-03T13:45:50.222Z,65.75
2022-12-03T13:47:56.991Z,65.52
2022-12-03T13:50:04.219Z,65.49
2022-12-03T13:52:12.757Z,66.06
2022-12-03T13:54:22.260Z,65.54
2022-12-03T13:56:29.028Z,65.45
2022-12-03T13:58:31.870Z,65.99
2022-12-03T14:00:34.786Z,65.80
2022-12-03T14:02:37.706Z,65.81
2022-12-03T14:04:40.944Z,66.33
2022-12-03T14:06:43.732Z,65.49
2022-12-03T14:08:46.584Z,65.16
2022-12-03T14:10:55.516Z,66.31
2022-12-03T14:13:00.814Z,65.48
2022-12-03T14:15:05.843Z,64.81
2022-12-03T14:17:09.533Z,64.76
2022-12-03T14:19:12.962Z,65.48
2022-12-03T14:21:15.954Z,66.11
2022-12-03T14:23:21.603Z,66.30
2022-12-03T14:25:24.464Z,66.57
2022-12-03T14:27:28.668Z,65.78
2022-12-03T14:29:31.517Z,65.31
2022-12-03T14:31:35.475Z,65.94
2022-12-03T14:33:38.368Z,65.65
2022-12-03T14:35:41.246Z,65.84
2022-12-03T14:37:44.119Z,65.55
2022-12-03T14:39:48.895Z,65.43
2022-12-03T14:42:09.055Z,64.21
2022-12-03T14:44:13.263Z,64.59
2022-12-03T14:46:16.164Z,64.17
2022-12-03T14:48:19.100Z,64.40
2022-12-03T14:50:21.999Z,65.19
2022-12-03T14:52:24.933Z,64.84
2022-12-03T14:54:27.915Z,64.83
2022-12-03T14:56:30.784Z,64.20
2022-12-03T14:58:34.206Z,64.09
2022-12-03T15:00:38.351Z,63.84
2022-12-03T15:02:41.199Z,63.85
2022-12-03T15:04:44.095Z,64.52
2022-12-03T15:06:47.258Z,64.55
2022-12-03T15:08:50.107Z,65.25
2022-12-03T15:10:52.903Z,64.68
2022-12-03T15:12:55.864Z,64.81
2022-12-03T15:14:58.671Z,65.06
2022-12-03T15:17:03.210Z,64.76
2022-12-03T15:19:06.146Z,65.11
2022-12-03T15:21:09.141Z,65.61
2022-12-03T15:23:14.484Z,65.90
2022-12-03T15:25:24.176Z,65.38
2022-12-03T15:27:27.475Z,65.25
2022-12-03T15:29:30.739Z,65.83
2022-12-03T15:31:33.669Z,65.40
2022-12-03T15:33:37.948Z,64.75
2022-12-03T15:35:42.467Z,65.36
2022-12-03T15:37:45.364Z,65.63
2022-12-03T15:39:48.951Z,65.71
2022-12-03T15:41:52.210Z,65.34
2022-12-03T15:43:55.032Z,65.27
2022-12-03T15:45:57.973Z,64.80
2022-12-03T15:48:01.234Z,64.29
2022-12-03T15:50:06.522Z,64.94
2022-12-03T15:52:09.360Z,65.63
2022-12-03T15:54:13.124Z,66.17
2022-12-03T15:56:16.120Z,66.31
2022-12-03T15:58:19.084Z,66.03
2022-12-03T16:00:22.503Z,65.71
2022-12-03T16:02:25.760Z,65.49
2022-12-03T16:04:28.690Z,65.18
2022-12-03T16:06:32.905Z,65.60
2022-12-03T16:08:35.817Z,64.84
2022-12-03T16:10:39.986Z,65.33
2022-12-03T16:12:42.785Z,65.48
2022-12-03T16:14:45.629Z,65.88
2022-12-03T16:16:48.699Z,65.75
2022-12-03T16:18:51.522Z,65.25
2022-12-03T16:20:54.340Z,65.65
2022-12-03T16:22:58.527Z,65.41
2022-12-03T16:25:03.133Z,65.66
2022-12-03T16:27:06.127Z,65.45
2022-12-03T16:29:08.929Z,65.46
2022-12-03T16:31:11.773Z,65.71
2022-12-03T16:33:14.921Z,65.55
2022-12-03T16:35:17.878Z,65.28
2022-12-03T16:37:35.869Z,66.06
2022-12-03T16:39:40.149Z,66.67
2022-12-03T16:41:44.406Z,66.88
2022-12-03T16:43:48.507Z,67.07
2022-12-03T16:46:20.245Z,66.20
2022-12-03T16:48:24.058Z,66.41
2022-12-03T16:50:29.926Z,66.68
2022-12-03T16:52:33.158Z,65.92
2022-12-03T16:54:35.978Z,65.92
2022-12-03T16:56:40.116Z,66.31
2022-12-03T16:58:42.957Z,66.52
2022-12-03T17:00:45.767Z,66.21
2022-12-03T17:02:49.210Z,66.23
2022-12-03T17:04:52.079Z,66.17
2022-12-03T17:06:54.811Z,65.59
2022-12-03T17:08:57.632Z,65.74
2022-12-03T17:11:00.424Z,66.15
2022-12-03T17:13:11.717Z,66.14
2022-12-03T17:15:14.731Z,66.62
2022-12-03T17:17:17.521Z,65.87
2022-12-03T17:19:20.384Z,65.50
2022-12-03T17:21:23.269Z,65.55
2022-12-03T17:23:26.108Z,65.85
2022-12-03T17:25:29.319Z,66.30
2022-12-03T17:27:32.100Z,66.64
2022-12-03T17:29:36.326Z,66.67
2022-12-03T17:31:42.173Z,66.84
2022-12-03T17:33:46.778Z,66.62
2022-12-03T17:35:49.602Z,66.17
2022-12-03T17:37:52.411Z,72.01
2022-12-03T17:39:57.945Z,75.58
2022-12-03T17:42:00.714Z,68.51
2022-12-03T17:44:09.711Z,66.34
2022-12-03T17:46:15.149Z,66.51
2022-12-03T17:48:18.082Z,65.41
2022-12-03T17:50:22.156Z,66.32
2022-12-03T17:52:25.219Z,66.11
2022-12-03T17:54:43.468Z,66.23
2022-12-03T17:56:51.088Z,66.30
2022-12-03T17:58:53.951Z,65.82
2022-12-03T18:01:02.054Z,65.94
2022-12-03T18:03:07.131Z,66.53
2022-12-03T18:05:10.978Z,66.77
2022-12-03T18:07:13.783Z,66.38
2022-12-03T18:09:16.674Z,66.29
2022-12-03T18:11:19.678Z,65.86
2022-12-03T18:13:22.638Z,66.27
2022-12-03T18:15:25.520Z,66.71
2022-12-03T18:17:28.509Z,66.86
2022-12-03T18:19:32.670Z,66.34
2022-12-03T18:21:36.395Z,66.95
2022-12-03T18:23:39.676Z,66.89
2022-12-03T18:25:43.028Z,66.77
2022-12-03T18:27:46.900Z,66.98
2022-12-03T18:29:50.020Z,65.91
2022-12-03T18:31:52.986Z,65.86
2022-12-03T18:33:55.927Z,66.22
2022-12-03T18:36:00.233Z,66.11
2022-12-03T18:38:03.099Z,66.14
2022-12-03T18:40:12.844Z,65.69
2022-12-03T18:42:18.705Z,65.90
2022-12-03T18:44:21.648Z,65.71
2022-12-03T18:46:51.755Z,66.04
2022-12-03T18:48:49.257Z,65.99
2022-12-03T18:50:52.079Z,66.08
2022-12-03T18:52:56.251Z,66.19
2022-12-03T18:54:59.088Z,66.43
2022-12-03T18:57:01.949Z,69.28
2022-12-03T18:59:07.599Z,72.03
2022-12-03T19:01:15.992Z,66.85
2022-12-03T19:03:19.212Z,64.44
2022-12-03T19:05:22.177Z,64.78
2022-12-03T19:07:25.437Z,64.45
2022-12-03T19:09:29.705Z,65.00
2022-12-03T19:11:34.708Z,65.41
2022-12-03T19:13:37.611Z,65.04
2022-12-03T19:15:40.506Z,65.12
2022-12-03T19:17:43.354Z,65.70
2022-12-03T19:19:46.404Z,66.01
2022-12-03T19:21:49.294Z,66.55
2022-12-03T19:24:22.635Z,66.34
2022-12-03T19:26:16.640Z,66.17
2022-12-03T19:28:19.721Z,66.35
2022-12-03T19:30:22.909Z,66.39
2022-12-03T19:32:26.909Z,65.83
2022-12-03T19:34:31.900Z,65.75
2022-12-03T19:36:34.588Z,65.65
2022-12-03T19:38:38.789Z,65.39
2022-12-03T19:40:41.570Z,65.60
2022-12-03T19:42:45.771Z,65.64
2022-12-03T19:44:48.603Z,65.88
2022-12-03T19:46:52.784Z,65.31
2022-12-03T19:48:55.888Z,65.25
2022-12-03T19:51:19.762Z,64.89
2022-12-03T19:53:22.551Z,65.61
2022-12-03T19:55:25.408Z,66.08
2022-12-03T19:57:28.262Z,65.76
2022-12-03T19:59:32.416Z,66.38
2022-12-03T20:01:40.243Z,66.60
2022-12-03T20:03:44.890Z,66.85
2022-12-03T20:05:47.714Z,67.08
2022-12-03T20:07:50.707Z,66.05
2022-12-03T20:09:53.887Z,66.54
2022-12-03T20:11:56.944Z,66.93
2022-12-03T20:14:01.918Z,66.75
2022-12-03T20:16:06.981Z,66.17
2022-12-03T20:18:10.422Z,65.66
2022-12-03T20:20:13.562Z,64.80
2022-12-03T20:22:16.419Z,65.02
2022-12-03T20:24:19.298Z,65.42
2022-12-03T20:26:23.037Z,65.47
2022-12-03T20:28:26.330Z,64.85
2022-12-03T20:30:29.145Z,65.10
2022-12-03T20:32:33.331Z,65.77
2022-12-03T20:34:36.362Z,65.26
2022-12-03T20:36:39.849Z,65.39
2022-12-03T20:38:42.962Z,66.12
2022-12-03T20:40:45.812Z,65.74
2022-12-03T20:42:49.222Z,65.74
2022-12-03T20:44:52.621Z,65.52
2022-12-03T20:46:55.490Z,65.33
2022-12-03T20:49:00.123Z,65.83
2022-12-03T20:51:05.627Z,65.57
2022-12-03T20:53:24.226Z,65.33
2022-12-03T20:55:27.808Z,66.36
2022-12-03T20:57:30.582Z,65.60
2022-12-03T20:59:33.590Z,65.59
2022-12-03T21:01:38.320Z,65.30
2022-12-03T21:03:41.283Z,65.95
2022-12-03T21:05:45.605Z,66.04
2022-12-03T21:07:52.372Z,65.96
2022-12-03T21:09:55.548Z,65.57
2022-12-03T21:11:58.643Z,65.76
2022-12-03T21:14:01.632Z,66.11
2022-12-03T21:16:06.607Z,65.89
2022-12-03T21:18:10.112Z,66.39
2022-12-03T21:20:16.592Z,66.26
2022-12-03T21:22:23.575Z,66.17
2022-12-03T21:24:26.646Z,66.26
2022-12-03T21:26:29.717Z,66.26
2022-12-03T21:28:32.874Z,66.68
2022-12-03T21:30:39.004Z,66.88
2022-12-03T21:32:41.846Z,66.09
2022-12-03T21:34:44.745Z,65.42
2022-12-03T21:36:47.610Z,66.09
2022-12-03T21:38:52.692Z,65.67
2022-12-03T21:40:56.212Z,66.12
2022-12-03T21:42:59.130Z,66.51
2022-12-03T21:45:01.987Z,66.31
2022-12-03T21:47:11.971Z,65.83
2022-12-03T21:49:19.227Z,65.86
2022-12-03T21:51:22.494Z,66.32
2022-12-03T21:53:25.482Z,66.33
2022-12-03T21:55:29.736Z,66.26
2022-12-03T21:57:32.629Z,66.50
2022-12-03T21:59:35.436Z,65.89
2022-12-03T22:01:40.640Z,65.85
2022-12-03T22:03:46.919Z,66.43
2022-12-03T22:05:50.315Z,65.63
2022-12-03T22:07:53.275Z,66.24
2022-12-03T22:09:56.309Z,65.62
2022-12-03T22:12:01.494Z,65.60
2022-12-03T22:14:04.763Z,66.13
2022-12-03T22:16:09.975Z,66.39
2022-12-03T22:18:12.900Z,66.50
2022-12-03T22:20:15.988Z,66.52
2022-12-03T22:22:19.440Z,67.06
2022-12-03T22:24:23.667Z,65.34
2022-12-03T22:26:26.424Z,64.98
2022-12-03T22:28:30.783Z,65.84
2022-12-03T22:30:33.751Z,65.54
2022-12-03T22:32:36.650Z,65.33
2022-12-03T22:34:42.711Z,65.28
2022-12-03T22:36:45.497Z,65.17
2022-12-03T22:38:48.471Z,65.50
2022-12-03T22:40:51.318Z,65.94
2022-12-03T22:42:54.191Z,66.13
2022-12-03T22:44:58.301Z,66.50
2022-12-03T22:47:01.129Z,66.19
2022-12-03T22:49:07.448Z,66.09
2022-12-03T22:51:13.244Z,65.95
2022-12-03T22:53:20.519Z,65.82
2022-12-03T22:55:23.372Z,65.39
2022-12-03T22:57:26.209Z,66.30
2022-12-03T22:59:29.094Z,65.96
2022-12-03T23:01:35.171Z,65.22
2022-12-03T23:03:38.071Z,65.51
2022-12-03T23:05:43.099Z,65.66
2022-12-03T23:07:45.981Z,65.13
2022-12-03T23:09:48.905Z,64.97
2022-12-03T23:11:51.704Z,65.56
2022-12-03T23:13:54.977Z,65.77
2022-12-03T23:15:58.274Z,65.64
2022-12-03T23:18:02.439Z,65.21
2022-12-03T23:20:05.996Z,66.22
2022-12-03T23:22:08.831Z,66.28
2022-12-03T23:24:11.681Z,66.20
2022-12-03T23:26:16.406Z,66.01
2022-12-03T23:28:19.331Z,66.41
2022-12-03T23:30:22.151Z,65.42
2022-12-03T23:32:25.226Z,65.28
2022-12-03T23:34:29.382Z,65.58
2022-12-03T23:36:34.506Z,65.48
2022-12-03T23:38:37.348Z,65.82
2022-12-03T23:40:44.739Z,65.91
2022-12-03T23:42:50.658Z,66.17
2022-12-03T23:44:53.421Z,65.51
2022-12-03T23:46:56.336Z,65.12
2022-12-03T23:48:59.875Z,65.84
2022-12-03T23:51:07.935Z,66.41
2022-12-03T23:53:10.870Z,66.79
2022-12-03T23:55:13.756Z,65.99
2022-12-03T23:57:18.194Z,65.73
2022-12-03T23:59:21.008Z,65.68
